Vesta, MN

11:19 PM CDT on May 22, 2015 (GMT -0500)
Redwood Falls Municipal | | Change Station
CLOSE
Current Station
Airport
Location: Redwood Falls,
Elevation: 1024 ft
Nearby Weather Stations

Elev 1024 ft 44.55 °N, 95.08 °W | Updated 26 minutes ago

Partly Cloudy
Partly Cloudy
63 °F
Feels Like 63 °F
N
7
Wind Variable Wind from SE

Today
High -- | Low -- °F
--% Chance of Precip.
Yesterday
High -- | Low -- °F
Precip. -- in
5:47 AM 8:49 PM
Waxing Crescent, 26% visible
Pressure 30.17 in
Visibility 10.0 miles
Clouds Clear
Dew Point 36 °F
Humidity 37%
Rainfall 0.00 in
Snow Depth Not available.
UV 0 out of 12
Pollen 8.90 out of 12
Air Quality Not available.
Flu Activity Sporadic
METAR KRWF 230353Z AUTO 13006KT 10SM CLR 17/02 A3017 RMK AO2 SLP216 T01720022

More Conditions Fewer Conditions

Pressure 30.17 in
Visibility 10.0 miles
Clouds Clear
Dew Point 36 °F
Humidity 37%
Rainfall 0.00 in
Snow Depth Not available.
UV 0 out of 12
Pollen 8.90 out of 12
Air Quality Not available.
Flu Activity Sporadic
METAR KRWF 230353Z AUTO 13006KT 10SM CLR 17/02 A3017 RMK AO2 SLP216 T01720022

More Conditions Fewer Conditions

10-Day Weather Forecast

Almanac

Astronomy

May. 22, 2015 Rise Set
Actual Time
Civil Twilight
Nautical Twilight
Astronomical Twilight
Moon
Length of Visible Light
Length of Day
Tomorrow will be .
, % of the Moon is Illuminated

Today's Extremes

State Highs State Lows

Community

WunderPhotos

Upload Photos

1,823,392 photos uploaded!

WunderBlogs® & News

Nearby

Air Quality

  Air Quality AQ Index Pollutant
Not available.

Snow Depth

Station Depth Elevation

Earthquake Activity

City Distance Mag. Time & Date
Minimum magnitude displayed is 2.5.

Coastal Water Temperatures

Place Temperature

Stations

Nearby Weather Stations

Station Location Temp. Windchill Dew Point Humidity Wind Precip. Elev Updated Type